sensor_id;sensor_type;location;lat;lon;timestamp;pressure;altitude;pressure_sealevel;temperature;humidity
54872;BME280;43914;57.680;11.982;2023-04-29T00:01:01;100592.17;;;6.21;69.67
54872;BME280;43914;57.680;11.982;2023-04-29T00:03:26;100590.84;;;6.19;69.70
54872;BME280;43914;57.680;11.982;2023-04-29T00:05:54;100593.29;;;6.16;69.81
54872;BME280;43914;57.680;11.982;2023-04-29T00:08:19;100593.58;;;6.14;69.76
54872;BME280;43914;57.680;11.982;2023-04-29T00:10:45;100591.31;;;6.14;69.98
54872;BME280;43914;57.680;11.982;2023-04-29T00:13:11;100586.82;;;6.15;70.14
54872;BME280;43914;57.680;11.982;2023-04-29T00:15:37;100584.15;;;6.16;70.60
54872;BME280;43914;57.680;11.982;2023-04-29T00:18:04;100580.69;;;6.17;70.40
54872;BME280;43914;57.680;11.982;2023-04-29T00:20:30;100582.41;;;6.16;70.59
54872;BME280;43914;57.680;11.982;2023-04-29T00:22:55;100579.45;;;6.14;70.52
54872;BME280;43914;57.680;11.982;2023-04-29T00:25:21;100576.96;;;6.12;70.92
54872;BME280;43914;57.680;11.982;2023-04-29T00:27:46;100574.79;;;6.09;71.28
54872;BME280;43914;57.680;11.982;2023-04-29T00:30:11;100574.61;;;6.09;71.51
54872;BME280;43914;57.680;11.982;2023-04-29T00:32:37;100572.59;;;6.08;71.30
54872;BME280;43914;57.680;11.982;2023-04-29T00:35:03;100574.48;;;6.06;70.95
54872;BME280;43914;57.680;11.982;2023-04-29T00:37:29;100580.25;;;6.05;70.70
54872;BME280;43914;57.680;11.982;2023-04-29T00:39:54;100579.33;;;6.06;70.99
54872;BME280;43914;57.680;11.982;2023-04-29T00:42:20;100572.44;;;6.04;71.31
54872;BME280;43914;57.680;11.982;2023-04-29T00:44:46;100571.41;;;6.07;71.86
54872;BME280;43914;57.680;11.982;2023-04-29T00:47:12;100569.98;;;6.07;71.85
54872;BME280;43914;57.680;11.982;2023-04-29T00:49:38;100571.56;;;6.02;71.96
54872;BME280;43914;57.680;11.982;2023-04-29T00:52:04;100564.17;;;5.96;72.27
54872;BME280;43914;57.680;11.982;2023-04-29T00:54:33;100565.53;;;5.95;72.72
54872;BME280;43914;57.680;11.982;2023-04-29T00:57:00;100567.08;;;5.95;73.35
54872;BME280;43914;57.680;11.982;2023-04-29T00:59:27;100564.98;;;5.97;73.59
54872;BME280;43914;57.680;11.982;2023-04-29T01:02:00;100570.37;;;5.94;73.57
54872;BME280;43914;57.680;11.982;2023-04-29T01:04:27;100566.54;;;5.91;73.55
54872;BME280;43914;57.680;11.982;2023-04-29T01:07:18;100562.69;;;5.87;73.81
54872;BME280;43914;57.680;11.982;2023-04-29T01:15:11;100562.61;;;5.85;73.45
54872;BME280;43914;57.680;11.982;2023-04-29T01:17:51;100559.45;;;5.86;73.52
54872;BME280;43914;57.680;11.982;2023-04-29T01:20:21;100558.15;;;5.87;73.17
54872;BME280;43914;57.680;11.982;2023-04-29T01:22:46;100558.02;;;5.86;73.18
54872;BME280;43914;57.680;11.982;2023-04-29T01:25:16;100558.89;;;5.87;72.76
54872;BME280;43914;57.680;11.982;2023-04-29T01:27:54;100555.33;;;5.87;72.79
54872;BME280;43914;57.680;11.982;2023-04-29T01:30:44;100553.95;;;5.86;72.67
54872;BME280;43914;57.680;11.982;2023-04-29T01:41:34;100550.26;;;5.77;73.31
54872;BME280;43914;57.680;11.982;2023-04-29T01:44:06;100551.27;;;5.77;73.53
54872;BME280;43914;57.680;11.982;2023-04-29T01:46:33;100550.96;;;5.76;73.53
54872;BME280;43914;57.680;11.982;2023-04-29T01:48:59;100551.55;;;5.76;73.39
54872;BME280;43914;57.680;11.982;2023-04-29T01:51:25;100545.30;;;5.73;73.24
54872;BME280;43914;57.680;11.982;2023-04-29T01:53:50;100542.82;;;5.71;72.98
54872;BME280;43914;57.680;11.982;2023-04-29T01:56:16;100539.27;;;5.68;72.86
54872;BME280;43914;57.680;11.982;2023-04-29T01:58:41;100537.09;;;5.65;72.80
54872;BME280;43914;57.680;11.982;2023-04-29T02:01:07;100536.27;;;5.62;72.72
54872;BME280;43914;57.680;11.982;2023-04-29T02:03:34;100536.88;;;5.58;72.19
54872;BME280;43914;57.680;11.982;2023-04-29T02:06:00;100535.24;;;5.53;71.92
54872;BME280;43914;57.680;11.982;2023-04-29T02:08:26;100534.16;;;5.50;72.12
54872;BME280;43914;57.680;11.982;2023-04-29T02:10:56;100529.27;;;5.47;72.36
54872;BME280;43914;57.680;11.982;2023-04-29T02:13:22;100528.84;;;5.44;72.79
54872;BME280;43914;57.680;11.982;2023-04-29T02:15:47;100530.95;;;5.41;73.29
54872;BME280;43914;57.680;11.982;2023-04-29T02:18:13;100531.02;;;5.38;73.71
54872;BME280;43914;57.680;11.982;2023-04-29T02:20:39;100528.69;;;5.39;74.30
54872;BME280;43914;57.680;11.982;2023-04-29T02:23:05;100525.88;;;5.38;74.36
54872;BME280;43914;57.680;11.982;2023-04-29T02:25:30;100529.73;;;5.37;74.49
54872;BME280;43914;57.680;11.982;2023-04-29T02:27:56;100526.99;;;5.36;74.73
54872;BME280;43914;57.680;11.982;2023-04-29T02:30:21;100524.02;;;5.32;74.46
54872;BME280;43914;57.680;11.982;2023-04-29T02:32:47;100525.80;;;5.30;74.65
54872;BME280;43914;57.680;11.982;2023-04-29T02:35:12;100520.88;;;5.28;74.73
54872;BME280;43914;57.680;11.982;2023-04-29T02:37:38;100518.45;;;5.25;74.94
54872;BME280;43914;57.680;11.982;2023-04-29T02:40:04;100517.55;;;5.22;74.99
54872;BME280;43914;57.680;11.982;2023-04-29T02:42:31;100510.94;;;5.21;75.41
54872;BME280;43914;57.680;11.982;2023-04-29T02:44:57;100509.19;;;5.23;75.45
54872;BME280;43914;57.680;11.982;2023-04-29T02:47:22;100504.60;;;5.24;75.68
54872;BME280;43914;57.680;11.982;2023-04-29T02:49:48;100499.78;;;5.26;75.69
54872;BME280;43914;57.680;11.982;2023-04-29T02:52:14;100501.64;;;5.25;75.60
54872;BME280;43914;57.680;11.982;2023-04-29T02:54:41;100505.09;;;5.22;75.39
54872;BME280;43914;57.680;11.982;2023-04-29T02:57:06;100501.81;;;5.18;74.91
54872;BME280;43914;57.680;11.982;2023-04-29T02:59:32;100503.64;;;5.13;74.99
54872;BME280;43914;57.680;11.982;2023-04-29T03:01:57;100500.38;;;5.12;75.11
54872;BME280;43914;57.680;11.982;2023-04-29T03:04:23;100503.30;;;5.12;75.20
54872;BME280;43914;57.680;11.982;2023-04-29T03:06:49;100499.06;;;5.10;75.34
54872;BME280;43914;57.680;11.982;2023-04-29T03:09:15;100497.14;;;5.08;75.40
54872;BME280;43914;57.680;11.982;2023-04-29T03:11:40;100495.23;;;5.09;75.38
54872;BME280;43914;57.680;11.982;2023-04-29T03:14:06;100496.19;;;5.10;75.04
54872;BME280;43914;57.680;11.982;2023-04-29T03:16:31;100489.83;;;5.10;75.46
54872;BME280;43914;57.680;11.982;2023-04-29T03:18:57;100486.14;;;5.09;76.23
54872;BME280;43914;57.680;11.982;2023-04-29T03:21:23;100484.88;;;5.10;76.03
54872;BME280;43914;57.680;11.982;2023-04-29T03:23:50;100479.71;;;5.11;74.97
54872;BME280;43914;57.680;11.982;2023-04-29T03:26:15;100477.02;;;5.12;74.58
54872;BME280;43914;57.680;11.982;2023-04-29T03:28:41;100482.30;;;5.12;74.19
54872;BME280;43914;57.680;11.982;2023-04-29T03:31:06;100478.89;;;5.11;74.24
54872;BME280;43914;57.680;11.982;2023-04-29T03:33:32;100479.10;;;5.14;74.37
54872;BME280;43914;57.680;11.982;2023-04-29T03:35:57;100474.00;;;5.13;74.46
54872;BME280;43914;57.680;11.982;2023-04-29T03:38:23;100473.15;;;5.15;74.47
54872;BME280;43914;57.680;11.982;2023-04-29T03:40:50;100476.30;;;5.15;74.32
54872;BME280;43914;57.680;11.982;2023-04-29T03:43:16;100478.18;;;5.18;74.21
54872;BME280;43914;57.680;11.982;2023-04-29T03:45:42;100476.16;;;5.18;74.19
54872;BME280;43914;57.680;11.982;2023-04-29T03:48:07;100470.15;;;5.16;74.50
54872;BME280;43914;57.680;11.982;2023-04-29T03:50:35;100466.45;;;5.16;74.96
54872;BME280;43914;57.680;11.982;2023-04-29T03:53:01;100465.64;;;5.19;75.34
54872;BME280;43914;57.680;11.982;2023-04-29T03:55:26;100462.09;;;5.21;76.02
54872;BME280;43914;57.680;11.982;2023-04-29T03:57:52;100458.77;;;5.26;76.58
54872;BME280;43914;57.680;11.982;2023-04-29T04:00:18;100458.20;;;5.29;77.05
54872;BME280;43914;57.680;11.982;2023-04-29T04:02:43;100457.81;;;5.31;77.16
54872;BME280;43914;57.680;11.982;2023-04-29T04:05:08;100456.52;;;5.32;77.35
54872;BME280;43914;57.680;11.982;2023-04-29T04:07:35;100454.48;;;5.36;77.79
54872;BME280;43914;57.680;11.982;2023-04-29T04:10:00;100452.51;;;5.39;78.05
54872;BME280;43914;57.680;11.982;2023-04-29T04:12:26;100454.81;;;5.42;78.26
54872;BME280;43914;57.680;11.982;2023-04-29T04:14:51;100456.65;;;5.44;77.82
54872;BME280;43914;57.680;11.982;2023-04-29T04:17:18;100457.48;;;5.45;77.78
54872;BME280;43914;57.680;11.982;2023-04-29T04:19:43;100456.48;;;5.48;77.95
54872;BME280;43914;57.680;11.982;2023-04-29T04:22:09;100453.70;;;5.49;77.77
54872;BME280;43914;57.680;11.982;2023-04-29T04:24:36;100448.98;;;5.50;77.92
54872;BME280;43914;57.680;11.982;2023-04-29T04:27:01;100451.09;;;5.54;78.14
54872;BME280;43914;57.680;11.982;2023-04-29T04:29:26;100449.08;;;5.58;78.44
54872;BME280;43914;57.680;11.982;2023-04-29T04:31:52;100447.62;;;5.62;78.30
54872;BME280;43914;57.680;11.982;2023-04-29T04:34:17;100444.70;;;5.64;78.14
54872;BME280;43914;57.680;11.982;2023-04-29T04:36:43;100444.31;;;5.66;77.99
54872;BME280;43914;57.680;11.982;2023-04-29T04:39:09;100437.42;;;5.68;77.92
54872;BME280;43914;57.680;11.982;2023-04-29T04:41:35;100437.93;;;5.70;77.73
54872;BME280;43914;57.680;11.982;2023-04-29T04:44:00;100436.59;;;5.70;77.77
54872;BME280;43914;57.680;11.982;2023-04-29T04:46:27;100437.65;;;5.74;77.88
54872;BME280;43914;57.680;11.982;2023-04-29T04:48:52;100438.23;;;5.77;77.78
54872;BME280;43914;57.680;11.982;2023-04-29T04:51:18;100437.27;;;5.80;77.69
54872;BME280;43914;57.680;11.982;2023-04-29T04:53:43;100438.92;;;5.83;77.66
54872;BME280;43914;57.680;11.982;2023-04-29T04:56:09;100439.73;;;5.84;77.51
54872;BME280;43914;57.680;11.982;2023-04-29T04:58:34;100439.35;;;5.83;77.48
54872;BME280;43914;57.680;11.982;2023-04-29T05:01:00;100434.45;;;5.84;77.12
54872;BME280;43914;57.680;11.982;2023-04-29T05:03:26;100433.89;;;5.85;77.28
54872;BME280;43914;57.680;11.982;2023-04-29T05:05:56;100435.63;;;5.87;77.46
54872;BME280;43914;57.680;11.982;2023-04-29T05:08:22;100434.30;;;5.89;77.69
54872;BME280;43914;57.680;11.982;2023-04-29T05:10:48;100430.23;;;5.93;77.75
54872;BME280;43914;57.680;11.982;2023-04-29T05:13:14;100424.59;;;5.97;77.89
54872;BME280;43914;57.680;11.982;2023-04-29T05:15:39;100421.33;;;6.01;78.10
54872;BME280;43914;57.680;11.982;2023-04-29T05:18:06;100417.54;;;6.07;78.27
54872;BME280;43914;57.680;11.982;2023-04-29T05:20:31;100415.14;;;6.12;78.26
54872;BME280;43914;57.680;11.982;2023-04-29T05:22:57;100406.30;;;6.16;78.41
54872;BME280;43914;57.680;11.982;2023-04-29T05:25:22;100401.20;;;6.22;78.44
54872;BME280;43914;57.680;11.982;2023-04-29T05:27:48;100401.38;;;6.27;78.52
54872;BME280;43914;57.680;11.982;2023-04-29T05:30:13;100400.92;;;6.31;78.67
54872;BME280;43914;57.680;11.982;2023-04-29T05:32:40;100407.37;;;6.36;78.75
54872;BME280;43914;57.680;11.982;2023-04-29T05:35:06;100400.64;;;6.41;78.71
54872;BME280;43914;57.680;11.982;2023-04-29T05:37:32;100404.84;;;6.46;78.74
54872;BME280;43914;57.680;11.982;2023-04-29T05:39:57;100401.17;;;6.51;78.76
54872;BME280;43914;57.680;11.982;2023-04-29T05:42:23;100398.77;;;6.56;78.87
54872;BME280;43914;57.680;11.982;2023-04-29T05:44:49;100400.44;;;6.62;78.91
54872;BME280;43914;57.680;11.982;2023-04-29T05:47:15;100399.95;;;6.69;79.09
54872;BME280;43914;57.680;11.982;2023-04-29T05:49:41;100395.34;;;6.75;79.11
54872;BME280;43914;57.680;11.982;2023-04-29T05:52:07;100393.16;;;6.82;79.16
54872;BME280;43914;57.680;11.982;2023-04-29T05:54:32;100391.41;;;6.88;79.19
54872;BME280;43914;57.680;11.982;2023-04-29T05:57:01;100390.60;;;6.94;79.39
54872;BME280;43914;57.680;11.982;2023-04-29T05:59:30;100388.05;;;7.01;79.69
54872;BME280;43914;57.680;11.982;2023-04-29T06:01:57;100388.85;;;7.09;79.65
54872;BME280;43914;57.680;11.982;2023-04-29T06:04:23;100387.56;;;7.15;79.70
54872;BME280;43914;57.680;11.982;2023-04-29T06:06:55;100392.15;;;7.22;79.74
54872;BME280;43914;57.680;11.982;2023-04-29T06:09:21;100392.77;;;7.30;79.84
54872;BME280;43914;57.680;11.982;2023-04-29T06:11:50;100390.55;;;7.35;79.76
54872;BME280;43914;57.680;11.982;2023-04-29T06:14:15;100394.00;;;7.41;79.79
54872;BME280;43914;57.680;11.982;2023-04-29T06:16:41;100393.52;;;7.47;79.72
54872;BME280;43914;57.680;11.982;2023-04-29T06:19:06;100386.79;;;7.53;79.96
54872;BME280;43914;57.680;11.982;2023-04-29T06:21:32;100380.64;;;7.59;80.20
54872;BME280;43914;57.680;11.982;2023-04-29T06:23:57;100381.35;;;7.65;80.39
54872;BME280;43914;57.680;11.982;2023-04-29T06:26:23;100381.16;;;7.72;80.65
54872;BME280;43914;57.680;11.982;2023-04-29T06:28:49;100382.29;;;7.79;80.65
54872;BME280;43914;57.680;11.982;2023-04-29T06:31:15;100378.86;;;7.87;80.60
54872;BME280;43914;57.680;11.982;2023-04-29T06:33:41;100378.52;;;7.95;80.50
54872;BME280;43914;57.680;11.982;2023-04-29T06:36:07;100374.25;;;8.04;79.93
54872;BME280;43914;57.680;11.982;2023-04-29T06:38:33;100373.31;;;8.16;79.42
54872;BME280;43914;57.680;11.982;2023-04-29T06:40:59;100369.27;;;8.25;78.76
54872;BME280;43914;57.680;11.982;2023-04-29T06:43:27;100366.77;;;8.32;78.50
54872;BME280;43914;57.680;11.982;2023-04-29T06:45:53;100362.97;;;8.39;78.31
54872;BME280;43914;57.680;11.982;2023-04-29T06:48:18;100367.64;;;8.48;78.22
54872;BME280;43914;57.680;11.982;2023-04-29T06:50:53;100365.52;;;8.56;78.23
54872;BME280;43914;57.680;11.982;2023-04-29T06:53:20;100364.33;;;8.66;78.45
54872;BME280;43914;57.680;11.982;2023-04-29T06:55:46;100359.48;;;8.73;78.25
54872;BME280;43914;57.680;11.982;2023-04-29T06:58:12;100357.86;;;8.77;78.07
54872;BME280;43914;57.680;11.982;2023-04-29T07:00:38;100354.92;;;8.76;77.90
54872;BME280;43914;57.680;11.982;2023-04-29T07:03:03;100353.09;;;8.75;77.82
54872;BME280;43914;57.680;11.982;2023-04-29T07:05:29;100349.02;;;8.81;78.01
54872;BME280;43914;57.680;11.982;2023-04-29T07:07:54;100341.99;;;8.86;77.96
54872;BME280;43914;57.680;11.982;2023-04-29T07:10:20;100340.20;;;8.85;77.93
54872;BME280;43914;57.680;11.982;2023-04-29T07:12:45;100333.74;;;8.86;78.01
54872;BME280;43914;57.680;11.982;2023-04-29T07:15:11;100331.53;;;8.88;78.25
54872;BME280;43914;57.680;11.982;2023-04-29T07:17:36;100334.48;;;8.95;78.70
54872;BME280;43914;57.680;11.982;2023-04-29T07:20:02;100329.22;;;9.03;79.00
54872;BME280;43914;57.680;11.982;2023-04-29T07:22:28;100327.81;;;9.12;79.30
54872;BME280;43914;57.680;11.982;2023-04-29T07:24:54;100329.13;;;9.19;79.49
54872;BME280;43914;57.680;11.982;2023-04-29T07:27:20;100332.96;;;9.26;79.91
54872;BME280;43914;57.680;11.982;2023-04-29T07:29:45;100330.55;;;9.28;80.03
54872;BME280;43914;57.680;11.982;2023-04-29T07:32:11;100327.96;;;9.29;80.54
54872;BME280;43914;57.680;11.982;2023-04-29T07:34:37;100328.36;;;9.24;80.43
54872;BME280;43914;57.680;11.982;2023-04-29T07:37:03;100329.40;;;9.20;81.16
54872;BME280;43914;57.680;11.982;2023-04-29T07:39:28;100326.83;;;9.22;81.59
54872;BME280;43914;57.680;11.982;2023-04-29T07:41:54;100331.09;;;9.16;81.03
54872;BME280;43914;57.680;11.982;2023-04-29T07:44:20;100332.70;;;9.07;80.01
54872;BME280;43914;57.680;11.982;2023-04-29T07:46:46;100331.67;;;8.99;79.24
54872;BME280;43914;57.680;11.982;2023-04-29T07:49:12;100334.33;;;8.95;78.90
54872;BME280;43914;57.680;11.982;2023-04-29T07:51:41;100331.48;;;8.90;78.67
54872;BME280;43914;57.680;11.982;2023-04-29T07:54:06;100325.53;;;8.89;78.80
54872;BME280;43914;57.680;11.982;2023-04-29T07:56:32;100327.63;;;8.89;77.95
54872;BME280;43914;57.680;11.982;2023-04-29T07:58:59;100324.48;;;8.84;77.07
54872;BME280;43914;57.680;11.982;2023-04-29T08:01:26;100323.36;;;8.77;76.10
54872;BME280;43914;57.680;11.982;2023-04-29T08:03:52;100327.27;;;8.65;76.25
54872;BME280;43914;57.680;11.982;2023-04-29T08:06:18;100324.88;;;8.58;76.57
54872;BME280;43914;57.680;11.982;2023-04-29T08:08:47;100319.95;;;8.50;76.68
54872;BME280;43914;57.680;11.982;2023-04-29T08:11:19;100321.38;;;8.45;76.88
54872;BME280;43914;57.680;11.982;2023-04-29T08:13:45;100325.07;;;8.39;77.16
54872;BME280;43914;57.680;11.982;2023-04-29T08:16:11;100325.71;;;8.35;77.23
54872;BME280;43914;57.680;11.982;2023-04-29T08:18:37;100328.36;;;8.31;77.42
54872;BME280;43914;57.680;11.982;2023-04-29T08:21:03;100326.14;;;8.29;77.14
54872;BME280;43914;57.680;11.982;2023-04-29T08:23:29;100329.12;;;8.29;77.48
54872;BME280;43914;57.680;11.982;2023-04-29T08:25:54;100327.50;;;8.29;76.34
54872;BME280;43914;57.680;11.982;2023-04-29T08:28:23;100330.11;;;8.25;75.37
54872;BME280;43914;57.680;11.982;2023-04-29T08:30:49;100321.98;;;8.20;72.85
54872;BME280;43914;57.680;11.982;2023-04-29T08:33:15;100325.84;;;8.16;72.02
54872;BME280;43914;57.680;11.982;2023-04-29T08:35:41;100326.13;;;8.12;71.36
54872;BME280;43914;57.680;11.982;2023-04-29T08:38:07;100333.36;;;8.06;70.70
54872;BME280;43914;57.680;11.982;2023-04-29T08:40:43;100329.61;;;8.03;69.71
54872;BME280;43914;57.680;11.982;2023-04-29T08:43:11;100332.96;;;8.01;69.14
54872;BME280;43914;57.680;11.982;2023-04-29T08:45:38;100336.74;;;8.00;69.26
54872;BME280;43914;57.680;11.982;2023-04-29T08:48:08;100330.59;;;8.01;69.28
54872;BME280;43914;57.680;11.982;2023-04-29T08:50:38;100328.86;;;7.99;69.10
54872;BME280;43914;57.680;11.982;2023-04-29T08:53:09;100335.56;;;7.98;69.20
54872;BME280;43914;57.680;11.982;2023-04-29T08:55:39;100331.14;;;7.93;69.03
54872;BME280;43914;57.680;11.982;2023-04-29T08:58:06;100332.05;;;7.91;69.25
54872;BME280;43914;57.680;11.982;2023-04-29T09:00:33;100322.96;;;7.89;69.18
54872;BME280;43914;57.680;11.982;2023-04-29T09:03:00;100322.42;;;7.91;69.54
54872;BME280;43914;57.680;11.982;2023-04-29T09:05:28;100321.86;;;7.90;69.88
54872;BME280;43914;57.680;11.982;2023-04-29T09:07:56;100319.65;;;7.86;70.30
54872;BME280;43914;57.680;11.982;2023-04-29T09:10:25;100319.39;;;7.83;70.73
54872;BME280;43914;57.680;11.982;2023-04-29T09:12:50;100322.48;;;7.86;71.09
54872;BME280;43914;57.680;11.982;2023-04-29T09:15:19;100322.77;;;7.90;71.42
54872;BME280;43914;57.680;11.982;2023-04-29T09:17:46;100326.61;;;7.93;71.77
54872;BME280;43914;57.680;11.982;2023-04-29T09:22:51;100323.54;;;8.00;72.78
54872;BME280;43914;57.680;11.982;2023-04-29T09:25:17;100323.70;;;8.05;72.37
54872;BME280;43914;57.680;11.982;2023-04-29T09:27:43;100319.27;;;8.03;72.68
54872;BME280;43914;57.680;11.982;2023-04-29T09:30:09;100317.56;;;8.02;72.60
54872;BME280;43914;57.680;11.982;2023-04-29T09:32:39;100309.33;;;8.07;72.69
54872;BME280;43914;57.680;11.982;2023-04-29T09:35:24;100312.04;;;8.13;73.56
54872;BME280;43914;57.680;11.982;2023-04-29T09:37:51;100307.92;;;8.16;74.20
54872;BME280;43914;57.680;11.982;2023-04-29T09:40:30;100318.22;;;8.24;74.77
54872;BME280;43914;57.680;11.982;2023-04-29T09:42:57;100314.38;;;8.32;74.83
54872;BME280;43914;57.680;11.982;2023-04-29T09:48:03;100309.79;;;8.42;74.88
54872;BME280;43914;57.680;11.982;2023-04-29T09:50:32;100310.05;;;8.49;74.83
54872;BME280;43914;57.680;11.982;2023-04-29T09:52:58;100305.70;;;8.56;74.53
54872;BME280;43914;57.680;11.982;2023-04-29T09:55:24;100312.39;;;8.66;74.53
54872;BME280;43914;57.680;11.982;2023-04-29T09:57:52;100318.10;;;8.73;74.31
54872;BME280;43914;57.680;11.982;2023-04-29T10:00:17;100302.00;;;8.83;75.03
54872;BME280;43914;57.680;11.982;2023-04-29T10:02:45;100296.50;;;8.96;74.59
54872;BME280;43914;57.680;11.982;2023-04-29T10:05:13;100290.34;;;9.16;74.31
54872;BME280;43914;57.680;11.982;2023-04-29T10:07:40;100297.80;;;9.36;72.52
54872;BME280;43914;57.680;11.982;2023-04-29T10:10:07;100291.98;;;9.43;71.74
54872;BME280;43914;57.680;11.982;2023-04-29T10:12:35;100295.48;;;9.49;71.41
54872;BME280;43914;57.680;11.982;2023-04-29T10:15:38;100311.83;;;9.50;71.27
54872;BME280;43914;57.680;11.982;2023-04-29T10:18:19;100295.41;;;9.51;71.05
54872;BME280;43914;57.680;11.982;2023-04-29T10:20:46;100299.90;;;9.52;71.02
54872;BME280;43914;57.680;11.982;2023-04-29T10:23:14;100296.70;;;9.50;71.34
54872;BME280;43914;57.680;11.982;2023-04-29T10:25:41;100294.10;;;9.47;71.62
54872;BME280;43914;57.680;11.982;2023-04-29T10:28:12;100286.38;;;9.40;72.17
54872;BME280;43914;57.680;11.982;2023-04-29T10:30:44;100284.40;;;9.36;72.81
54872;BME280;43914;57.680;11.982;2023-04-29T10:33:10;100282.19;;;9.35;73.36
54872;BME280;43914;57.680;11.982;2023-04-29T10:35:37;100287.04;;;9.36;73.59
54872;BME280;43914;57.680;11.982;2023-04-29T10:38:12;100299.62;;;9.38;73.29
54872;BME280;43914;57.680;11.982;2023-04-29T10:40:43;100296.27;;;9.32;73.57
54872;BME280;43914;57.680;11.982;2023-04-29T10:43:12;100292.68;;;9.32;74.07
54872;BME280;43914;57.680;11.982;2023-04-29T10:45:40;100296.31;;;9.26;74.21
54872;BME280;43914;57.680;11.982;2023-04-29T10:48:10;100287.20;;;9.14;74.82
54872;BME280;43914;57.680;11.982;2023-04-29T10:53:12;100283.33;;;9.23;76.15
54872;BME280;43914;57.680;11.982;2023-04-29T10:55:39;100285.51;;;9.39;75.17
54872;BME280;43914;57.680;11.982;2023-04-29T11:01:03;100280.36;;;9.66;72.79
54872;BME280;43914;57.680;11.982;2023-04-29T11:03:50;100276.41;;;9.75;72.33
54872;BME280;43914;57.680;11.982;2023-04-29T11:09:24;100270.85;;;9.94;68.94
54872;BME280;43914;57.680;11.982;2023-04-29T11:11:57;100303.62;;;9.83;67.41
54872;BME280;43914;57.680;11.982;2023-04-29T11:14:48;100292.73;;;9.80;65.79
54872;BME280;43914;57.680;11.982;2023-04-29T11:17:15;100283.41;;;9.73;64.54
54872;BME280;43914;57.680;11.982;2023-04-29T11:25:02;100278.58;;;9.76;63.82
54872;BME280;43914;57.680;11.982;2023-04-29T11:27:36;100277.34;;;9.77;63.80
54872;BME280;43914;57.680;11.982;2023-04-29T11:30:04;100281.58;;;9.79;63.10
54872;BME280;43914;57.680;11.982;2023-04-29T11:32:32;100281.71;;;9.68;63.14
54872;BME280;43914;57.680;11.982;2023-04-29T11:35:12;100294.38;;;9.64;63.35
54872;BME280;43914;57.680;11.982;2023-04-29T11:37:40;100288.90;;;9.62;63.07
54872;BME280;43914;57.680;11.982;2023-04-29T11:40:08;100285.17;;;9.56;63.46
54872;BME280;43914;57.680;11.982;2023-04-29T11:42:35;100294.86;;;9.53;64.16
54872;BME280;43914;57.680;11.982;2023-04-29T11:45:01;100307.14;;;9.40;63.22
54872;BME280;43914;57.680;11.982;2023-04-29T11:47:29;100299.23;;;9.31;63.46
54872;BME280;43914;57.680;11.982;2023-04-29T11:50:06;100290.42;;;9.39;63.85
54872;BME280;43914;57.680;11.982;2023-04-29T11:52:34;100290.17;;;9.56;64.31
54872;BME280;43914;57.680;11.982;2023-04-29T11:55:02;100296.02;;;9.70;63.11
54872;BME280;43914;57.680;11.982;2023-04-29T11:57:27;100301.80;;;9.78;61.90
54872;BME280;43914;57.680;11.982;2023-04-29T11:59:53;100293.65;;;9.93;61.62
54872;BME280;43914;57.680;11.982;2023-04-29T12:02:38;100288.80;;;10.14;61.91
54872;BME280;43914;57.680;11.982;2023-04-29T12:05:07;100291.63;;;10.39;60.95
54872;BME280;43914;57.680;11.982;2023-04-29T12:07:36;100295.00;;;10.41;60.25
54872;BME280;43914;57.680;11.982;2023-04-29T12:10:02;100298.26;;;10.36;59.56
54872;BME280;43914;57.680;11.982;2023-04-29T12:12:28;100295.25;;;10.38;58.84
54872;BME280;43914;57.680;11.982;2023-04-29T12:14:55;100300.84;;;10.38;58.20
54872;BME280;43914;57.680;11.982;2023-04-29T12:17:21;100299.73;;;10.35;57.58
54872;BME280;43914;57.680;11.982;2023-04-29T12:19:47;100306.77;;;10.36;56.22
54872;BME280;43914;57.680;11.982;2023-04-29T12:22:13;100316.40;;;10.36;55.89
54872;BME280;43914;57.680;11.982;2023-04-29T12:24:39;100308.20;;;10.39;55.53
54872;BME280;43914;57.680;11.982;2023-04-29T12:27:09;100312.35;;;10.36;54.85
54872;BME280;43914;57.680;11.982;2023-04-29T12:29:36;100317.52;;;10.32;54.89
54872;BME280;43914;57.680;11.982;2023-04-29T12:32:01;100312.81;;;10.28;54.70
54872;BME280;43914;57.680;11.982;2023-04-29T12:34:28;100302.94;;;10.37;55.46
54872;BME280;43914;57.680;11.982;2023-04-29T12:37:00;100308.91;;;10.57;55.64
54872;BME280;43914;57.680;11.982;2023-04-29T12:39:27;100311.89;;;10.74;55.04
54872;BME280;43914;57.680;11.982;2023-04-29T12:41:59;100312.86;;;10.91;54.30
54872;BME280;43914;57.680;11.982;2023-04-29T12:44:34;100321.23;;;11.01;53.05
54872;BME280;43914;57.680;11.982;2023-04-29T12:47:07;100301.50;;;11.15;53.43
54872;BME280;43914;57.680;11.982;2023-04-29T12:49:33;100306.23;;;11.29;53.08
54872;BME280;43914;57.680;11.982;2023-04-29T12:51:58;100316.63;;;11.47;53.08
54872;BME280;43914;57.680;11.982;2023-04-29T12:54:27;100320.98;;;11.50;52.00
54872;BME280;43914;57.680;11.982;2023-04-29T12:56:52;100326.40;;;11.49;52.08
54872;BME280;43914;57.680;11.982;2023-04-29T12:59:18;100321.14;;;11.52;52.24
54872;BME280;43914;57.680;11.982;2023-04-29T13:01:44;100317.69;;;11.54;51.80
54872;BME280;43914;57.680;11.982;2023-04-29T13:04:09;100322.17;;;11.60;51.72
54872;BME280;43914;57.680;11.982;2023-04-29T13:06:36;100310.17;;;11.74;52.19
54872;BME280;43914;57.680;11.982;2023-04-29T13:09:05;100301.83;;;11.98;52.45
54872;BME280;43914;57.680;11.982;2023-04-29T13:11:31;100303.62;;;12.17;51.18
54872;BME280;43914;57.680;11.982;2023-04-29T13:13:56;100331.35;;;12.21;50.20
54872;BME280;43914;57.680;11.982;2023-04-29T13:16:22;100298.23;;;12.23;50.23
54872;BME280;43914;57.680;11.982;2023-04-29T13:18:48;100296.83;;;12.42;49.94
54872;BME280;43914;57.680;11.982;2023-04-29T13:21:14;100304.83;;;12.54;49.22